Time;durP1;ratioP1;P1;durP2;ratioP2;P2;SDS_P1;SDS_P2;PMS_P1;PMS_P2;Temp;Humidity;BMP_temperature;BMP_pressure;BME280_temperature;BME280_humidity;BME280_pressure;Samples;Min_cycle;Max_cycle;Signal;HPM_P1;HPM_P2
2021/12/12 00:01:12;;;;;;;;;;;21.80;51.20;;;;;;5037139;28;20512;-72
2021/12/12 00:03:45;;;;;;;3.33;1.60;;;21.80;51.30;;;;;;5040250;28;19948;-72
2021/12/12 00:06:22;;;;;;;2.20;1.42;;;21.80;51.30;;;;;;5039414;28;20053;-72
2021/12/12 00:08:54;;;;;;;2.17;1.30;;;21.80;51.30;;;;;;5044728;28;20037;-70
2021/12/12 00:11:24;;;;;;;2.40;1.40;;;21.80;51.30;;;;;;5040278;28;20131;-70
2021/12/12 00:13:58;;;;;;;2.45;1.35;;;21.80;51.30;;;;;;5042531;28;20048;-72
2021/12/12 00:16:24;;;;;;;2.65;1.45;;;21.70;51.30;;;;;;5039435;28;20129;-72
2021/12/12 00:18:49;;;;;;;3.08;1.23;;;21.70;51.30;;;;;;5043151;28;20119;-71
2021/12/12 00:21:20;;;;;;;2.45;1.20;;;21.70;51.40;;;;;;5044084;28;20780;-71
2021/12/12 00:23:46;;;;;;;3.17;1.60;;;21.60;51.40;;;;;;5045776;28;20437;-69
2021/12/12 00:26:13;;;;;;;2.33;1.45;;;21.60;51.40;;;;;;5044447;28;20067;-69
2021/12/12 00:28:39;;;;;;;2.22;1.30;;;21.60;51.40;;;;;;5044401;28;20063;-70
2021/12/12 00:31:08;;;;;;;3.20;1.40;;;21.60;51.40;;;;;;5042966;28;20041;-71
2021/12/12 00:33:42;;;;;;;2.22;1.48;;;21.60;51.40;;;;;;5039011;28;20079;-71
2021/12/12 00:36:18;;;;;;;2.50;1.50;;;21.60;51.40;;;;;;5056405;28;20029;-71
2021/12/12 00:38:53;;;;;;;2.70;1.40;;;21.60;51.50;;;;;;5042488;28;20082;-69
2021/12/12 00:41:27;;;;;;;2.58;1.38;;;21.60;52.00;;;;;;5041350;28;20056;-72
2021/12/12 00:43:53;;;;;;;2.53;1.40;;;21.50;51.50;;;;;;5042883;28;20037;-73
2021/12/12 00:46:22;;;;;;;2.22;1.30;;;21.50;51.50;;;;;;5045007;28;20126;-70
2021/12/12 00:48:48;;;;;;;2.30;1.30;;;21.50;51.50;;;;;;5042159;28;20477;-70
2021/12/12 00:51:17;;;;;;;2.53;1.48;;;21.50;51.50;;;;;;5040424;28;20070;-70
2021/12/12 00:53:43;;;;;;;2.50;1.30;;;21.50;51.50;;;;;;5043181;28;20056;-67
2021/12/12 00:56:10;;;;;;;2.30;1.50;;;21.50;51.50;;;;;;5045185;28;20033;-70
2021/12/12 00:58:35;;;;;;;2.42;1.40;;;21.40;51.50;;;;;;5042794;28;20065;-73
2021/12/12 01:01:07;;;;;;;2.00;1.27;;;21.50;51.60;;;;;;5038791;28;20063;-68
2021/12/12 01:03:41;;;;;;;2.60;1.50;;;21.50;51.60;;;;;;5043352;28;20112;-72
2021/12/12 01:06:09;;;;;;;2.17;1.30;;;21.40;51.50;;;;;;5044437;28;20048;-71
2021/12/12 01:08:36;;;;;;;2.67;1.52;;;21.40;51.50;;;;;;5042522;28;20077;-73
2021/12/12 01:11:16;;;;;;;2.40;1.55;;;21.40;51.50;;;;;;5042972;28;20095;-70
2021/12/12 01:13:42;;;;;;;2.35;1.30;;;21.40;51.60;;;;;;5039471;28;20036;-71
2021/12/12 01:16:19;;;;;;;2.47;1.50;;;21.40;51.60;;;;;;5042786;28;20024;-71
2021/12/12 01:18:54;;;;;;;2.33;1.33;;;21.40;51.60;;;;;;5041515;28;20029;-70
2021/12/12 01:21:31;;;;;;;1.70;1.27;;;21.40;51.60;;;;;;5040832;28;20127;-71
2021/12/12 01:24:06;;;;;;;2.10;1.27;;;21.30;51.60;;;;;;5042932;28;20033;-73
2021/12/12 01:26:32;;;;;;;2.53;1.30;;;21.30;51.60;;;;;;5041235;28;20041;-66
2021/12/12 01:28:59;;;;;;;1.85;1.23;;;21.30;51.60;;;;;;5045033;28;20040;-68
2021/12/12 01:31:31;;;;;;;3.13;1.75;;;21.30;51.60;;;;;;5043610;28;20065;-73
2021/12/12 01:34:10;;;;;;;2.53;1.30;;;21.30;51.60;;;;;;5040147;28;20124;-71
2021/12/12 01:36:49;;;;;;;2.33;1.50;;;21.30;51.60;;;;;;5039152;28;20547;-73
2021/12/12 01:39:19;;;;;;;2.97;1.70;;;21.30;51.70;;;;;;5043128;28;20167;-70
2021/12/12 01:42:02;;;;;;;2.10;1.35;;;21.30;51.70;;;;;;5042903;28;20116;-68
2021/12/12 01:44:37;;;;;;;2.22;1.27;;;21.20;51.70;;;;;;5041111;28;20078;-72
2021/12/12 01:47:09;;;;;;;1.60;1.20;;;21.30;51.80;;;;;;5042154;28;20132;-71
2021/12/12 01:49:39;;;;;;;3.40;1.67;;;21.20;51.70;;;;;;5038340;28;20063;-73
2021/12/12 01:52:08;;;;;;;2.30;1.30;;;21.20;51.70;;;;;;5038938;28;20327;-68
2021/12/12 01:54:43;;;;;;;2.23;1.43;;;21.20;51.70;;;;;;5040963;28;20120;-70
2021/12/12 01:57:21;;;;;;;2.20;1.25;;;21.20;51.80;;;;;;5041025;28;20066;-70
2021/12/12 01:59:49;;;;;;;1.90;1.30;;;21.20;51.80;;;;;;5044140;28;20120;-68
2021/12/12 02:02:22;;;;;;;2.10;1.40;;;21.20;51.80;;;;;;5037977;28;20129;-73
2021/12/12 02:04:52;;;;;;;2.03;1.33;;;21.20;51.80;;;;;;5040451;28;20115;-67
2021/12/12 02:07:23;;;;;;;2.20;1.30;;;21.20;51.80;;;;;;5045923;28;20032;-72
2021/12/12 02:09:50;;;;;;;1.73;1.10;;;21.10;51.80;;;;;;5041789;28;20512;-74
2021/12/12 02:12:19;;;;;;;2.63;1.45;;;21.10;51.80;;;;;;5043277;28;20087;-71
2021/12/12 02:14:45;;;;;;;2.65;1.40;;;21.10;52.30;;;;;;5043778;28;20033;-71
2021/12/12 02:17:23;;;;;;;2.38;1.40;;;21.10;51.80;;;;;;5043042;28;20492;-73
2021/12/12 02:36:09;;;;;;;2.55;1.40;;;21.00;51.80;;;;;;5044110;28;20799;-72
2021/12/12 02:38:35;;;;;;;2.92;1.48;;;21.00;51.80;;;;;;5043763;28;20124;-69
2021/12/12 02:41:12;;;;;;;2.80;1.65;;;21.00;51.80;;;;;;5040555;28;20109;-70
2021/12/12 02:43:43;;;;;;;2.13;1.40;;;21.00;51.80;;;;;;5041894;28;20079;-71
2021/12/12 02:46:14;;;;;;;2.20;1.40;;;21.00;51.80;;;;;;5043796;28;20519;-70
2021/12/12 02:48:42;;;;;;;2.88;1.40;;;20.90;51.70;;;;;;5043237;28;20027;-67
2021/12/12 02:51:13;;;;;;;3.15;1.50;;;20.90;51.80;;;;;;5042589;28;20025;-67
2021/12/12 02:53:43;;;;;;;2.22;1.42;;;20.90;51.80;;;;;;5045341;28;20073;-67
2021/12/12 02:56:13;;;;;;;2.10;1.40;;;20.90;51.80;;;;;;5038442;28;20480;-73
2021/12/12 02:58:40;;;;;;;;;;;20.90;51.80;;;;;;5037832;28;20028;-70
2021/12/12 03:01:14;;;;;;;2.40;1.40;;;20.90;51.80;;;;;;5041475;28;19928;-71
2021/12/12 03:03:40;;;;;;;3.10;1.55;;;20.90;51.80;;;;;;5039759;28;20013;-70
2021/12/12 03:06:09;;;;;;;2.30;1.60;;;20.90;51.70;;;;;;5041805;28;20033;-70
2021/12/12 03:08:39;;;;;;;2.40;1.55;;;20.90;51.80;;;;;;5044009;28;20021;-71
2021/12/12 03:11:05;;;;;;;;;;;20.80;51.70;;;;;;5045543;28;20056;-71
2021/12/12 03:13:30;;;;;;;2.40;1.40;;;20.80;51.70;;;;;;5046565;28;19940;-70
2021/12/12 03:15:56;;;;;;;2.08;1.38;;;20.80;51.70;;;;;;5044745;28;20540;-68
2021/12/12 03:18:26;;;;;;;2.50;1.40;;;20.80;51.70;;;;;;5041734;28;20021;-73
2021/12/12 03:20:59;;;;;;;2.55;1.42;;;20.80;51.80;;;;;;5040256;28;20166;-73
2021/12/12 03:23:33;;;;;;;2.47;1.45;;;20.80;51.70;;;;;;5040947;28;20720;-70
2021/12/12 03:26:04;;;;;;;1.83;1.30;;;20.80;51.70;;;;;;5041510;28;20060;-73
2021/12/12 03:28:34;;;;;;;2.20;1.50;;;20.80;51.80;;;;;;5043275;28;20144;-67
2021/12/12 03:31:05;;;;;;;2.65;1.40;;;20.80;51.80;;;;;;5039403;28;20044;-70
2021/12/12 03:33:33;;;;;;;2.53;1.48;;;20.80;51.80;;;;;;5040684;28;20029;-67
2021/12/12 03:36:02;;;;;;;2.55;1.40;;;20.70;51.70;;;;;;5040736;28;20441;-70
2021/12/12 03:38:31;;;;;;;1.92;1.30;;;20.80;51.80;;;;;;5043035;28;20037;-70
2021/12/12 03:41:01;;;;;;;2.40;1.30;;;20.70;51.80;;;;;;5054265;28;20057;-73
2021/12/12 03:43:27;;;;;;;2.20;1.40;;;20.70;51.80;;;;;;5038210;28;20033;-67
2021/12/12 03:45:54;;;;;;;2.15;1.35;;;20.70;51.80;;;;;;5042591;28;20036;-73
2021/12/12 03:48:29;;;;;;;1.95;1.20;;;20.70;51.80;;;;;;5040334;28;20032;-73
2021/12/12 03:50:58;;;;;;;2.50;1.50;;;20.70;51.80;;;;;;5040745;28;20043;-70
2021/12/12 03:53:26;;;;;;;2.55;1.40;;;20.70;51.80;;;;;;5041856;28;20037;-70
2021/12/12 03:55:52;;;;;;;1.75;1.33;;;20.70;51.80;;;;;;5035976;28;20032;-68
2021/12/12 03:58:18;;;;;;;2.03;1.35;;;20.70;51.80;;;;;;5043718;28;20053;-73
2021/12/12 04:00:52;;;;;;;1.85;1.27;;;20.60;51.80;;;;;;5043174;28;20033;-67
2021/12/12 04:03:19;;;;;;;2.95;1.45;;;20.60;52.30;;;;;;5042397;28;20182;-72
2021/12/12 04:05:48;;;;;;;2.17;1.30;;;20.60;52.30;;;;;;5041546;28;20096;-69
2021/12/12 04:08:14;;;;;;;2.15;1.30;;;20.60;51.80;;;;;;5041763;28;20093;-71
2021/12/12 04:10:41;;;;;;;2.35;1.30;;;20.60;51.80;;;;;;5043492;28;20147;-67
2021/12/12 04:13:08;;;;;;;1.60;1.10;;;20.60;51.80;;;;;;5043052;28;20033;-70
2021/12/12 04:15:33;;;;;;;2.05;1.30;;;20.60;51.80;;;;;;5042829;28;20088;-72
2021/12/12 04:17:59;;;;;;;2.10;1.20;;;20.60;51.80;;;;;;5043191;28;20111;-70
2021/12/12 04:20:30;;;;;;;1.65;1.13;;;20.60;51.80;;;;;;5041522;28;20211;-68
2021/12/12 04:22:56;;;;;;;1.48;1.08;;;20.60;51.80;;;;;;5041433;28;20503;-67
2021/12/12 04:25:23;;;;;;;1.85;1.15;;;20.60;51.80;;;;;;5041870;28;20041;-73
2021/12/12 04:27:50;;;;;;;2.17;1.30;;;20.60;51.90;;;;;;5039297;28;20159;-70
2021/12/12 04:30:17;;;;;;;2.25;1.13;;;20.50;51.80;;;;;;5039494;28;20021;-69
2021/12/12 04:32:43;;;;;;;1.75;1.17;;;20.60;51.90;;;;;;5043724;28;20506;-70
2021/12/12 04:35:15;;;;;;;2.08;1.10;;;20.60;51.80;;;;;;5040910;28;20057;-69
2021/12/12 04:37:41;;;;;;;1.65;1.20;;;20.60;51.90;;;;;;5041962;28;20029;-70
2021/12/12 04:40:15;;;;;;;1.95;1.20;;;20.60;51.80;;;;;;5041620;28;20075;-73
2021/12/12 04:42:43;;;;;;;2.22;1.25;;;20.50;51.80;;;;;;5043586;28;20029;-75
2021/12/12 04:45:24;;;;;;;1.95;1.30;;;20.50;51.80;;;;;;5038005;28;20029;-70
2021/12/12 04:51:04;;;;;;;1.70;1.13;;;20.50;51.80;;;;;;5042400;28;20063;-73
2021/12/12 04:53:42;;;;;;;2.00;1.20;;;20.50;51.90;;;;;;5048728;28;20043;-69
2021/12/12 04:56:19;;;;;;;1.48;1.10;;;20.50;51.90;;;;;;5042405;28;20039;-70
2021/12/12 04:58:52;;;;;;;1.67;1.20;;;20.50;51.90;;;;;;5042743;28;20025;-67
2021/12/12 05:01:47;;;;;;;1.70;1.10;;;20.50;51.90;;;;;;5044833;28;20037;-72
2021/12/12 05:04:26;;;;;;;1.58;1.15;;;20.50;51.90;;;;;;5033779;28;20110;-69
2021/12/12 05:07:16;;;;;;;1.52;1.10;;;20.40;51.90;;;;;;5043219;28;20025;-69
2021/12/12 05:09:50;;;;;;;2.85;1.20;;;20.50;52.00;;;;;;5058015;28;20435;-74
2021/12/12 05:12:23;;;;;;;1.38;1.00;;;20.40;51.90;;;;;;5047389;28;20044;-71
2021/12/12 05:14:54;;;;;;;1.67;1.20;;;20.40;52.20;;;;;;5043601;28;20496;-71
2021/12/12 05:17:28;;;;;;;2.10;1.20;;;20.40;51.90;;;;;;5047069;28;20120;-71
2021/12/12 05:19:59;;;;;;;1.92;1.20;;;20.40;52.00;;;;;;5046145;28;20104;-71
2021/12/12 05:22:55;;;;;;;2.30;1.30;;;20.40;52.00;;;;;;5045206;28;20055;-68
2021/12/12 05:25:28;;;;;;;1.33;1.10;;;20.40;52.00;;;;;;5037293;28;20052;-71
2021/12/12 05:27:55;;;;;;;1.83;1.20;;;20.40;52.00;;;;;;5045503;28;20585;-74
2021/12/12 05:30:33;;;;;;;1.55;1.00;;;20.30;52.00;;;;;;5040258;28;20079;-71
2021/12/12 05:33:01;;;;;;;1.80;1.20;;;20.30;52.00;;;;;;5044608;28;20159;-70
2021/12/12 05:35:32;;;;;;;1.35;0.98;;;20.30;52.00;;;;;;5043176;28;20495;-69
2021/12/12 05:37:59;;;;;;;1.58;0.95;;;20.30;52.10;;;;;;5047960;28;20053;-74
2021/12/12 05:40:30;;;;;;;1.70;1.13;;;20.40;52.10;;;;;;5043883;28;20033;-69
2021/12/12 05:42:59;;;;;;;1.35;1.00;;;20.40;52.10;;;;;;5044357;28;20381;-71
2021/12/12 05:45:26;;;;;;;1.25;1.00;;;20.30;52.10;;;;;;5045619;28;20053;-71
2021/12/12 05:47:52;;;;;;;2.28;1.15;;;20.30;52.10;;;;;;5047252;28;20052;-71
2021/12/12 05:50:19;;;;;;;1.90;1.10;;;20.30;52.10;;;;;;5038220;28;20021;-70
2021/12/12 05:52:46;;;;;;;1.60;0.98;;;20.30;52.10;;;;;;5042633;28;20029;-67
2021/12/12 05:55:15;;;;;;;1.35;0.95;;;20.30;52.10;;;;;;5043958;28;20053;-70
2021/12/12 05:57:43;;;;;;;1.52;1.10;;;20.30;52.20;;;;;;5042532;28;20021;-68
2021/12/12 06:00:14;;;;;;;1.55;1.08;;;20.30;52.20;;;;;;5041660;28;20140;-69
2021/12/12 06:02:41;;;;;;;1.65;1.00;;;20.30;52.20;;;;;;5044745;28;20124;-70
2021/12/12 06:05:08;;;;;;;1.65;1.00;;;20.30;52.20;;;;;;5041180;28;20520;-70
2021/12/12 06:07:34;;;;;;;1.85;1.20;;;20.30;52.20;;;;;;5041650;28;20114;-69
2021/12/12 06:10:07;;;;;;;1.00;0.90;;;20.30;52.30;;;;;;5043566;28;20427;-69
2021/12/12 06:12:34;;;;;;;1.80;1.10;;;20.30;52.20;;;;;;5047550;28;20141;-73
2021/12/12 06:15:02;;;;;;;1.75;1.00;;;20.30;52.30;;;;;;5045314;28;20067;-71
2021/12/12 06:17:29;;;;;;;1.73;1.00;;;20.20;52.20;;;;;;5045684;28;20492;-71
2021/12/12 06:19:56;;;;;;;1.50;1.00;;;20.30;52.30;;;;;;5041957;28;20108;-71
2021/12/12 06:22:22;;;;;;;1.67;1.00;;;20.30;52.30;;;;;;5046303;28;20473;-70
2021/12/12 06:24:48;;;;;;;1.70;1.10;;;20.30;52.20;;;;;;5043773;28;20024;-70
2021/12/12 06:27:17;;;;;;;1.67;1.10;;;20.20;52.20;;;;;;5047731;28;20457;-73
2021/12/12 06:29:46;;;;;;;1.35;1.00;;;20.30;52.30;;;;;;5040743;28;20020;-70
2021/12/12 06:32:13;;;;;;;;;;;20.20;52.20;;;;;;5037227;28;20223;-72
2021/12/12 06:34:38;;;;;;;2.00;1.20;;;20.20;52.30;;;;;;5041316;28;20367;-70
2021/12/12 06:37:05;;;;;;;1.85;1.25;;;20.20;52.30;;;;;;5044897;28;20025;-70
2021/12/12 06:39:34;;;;;;;1.40;0.90;;;20.20;52.20;;;;;;5040925;28;20072;-73
2021/12/12 06:42:01;;;;;;;1.67;1.20;;;20.20;52.30;;;;;;5038231;28;20116;-70
2021/12/12 06:44:27;;;;;;;1.50;1.00;;;20.20;52.30;;;;;;5041518;28;20047;-71
2021/12/12 06:46:53;;;;;;;1.55;1.10;;;20.20;52.40;;;;;;5043453;28;20032;-72
2021/12/12 06:49:21;;;;;;;1.58;1.00;;;20.20;52.30;;;;;;5042035;28;20091;-72
2021/12/12 06:51:55;;;;;;;1.27;1.02;;;20.20;52.30;;;;;;5045429;28;20070;-72
2021/12/12 06:54:24;;;;;;;1.40;0.90;;;20.20;52.40;;;;;;5041964;28;20029;-70
2021/12/12 06:56:52;;;;;;;1.63;0.90;;;20.20;52.40;;;;;;5042581;28;20060;-70
2021/12/12 06:59:20;;;;;;;1.25;0.98;;;20.20;52.40;;;;;;5040142;28;20101;-68
2021/12/12 07:01:47;;;;;;;0.90;0.80;;;20.20;52.40;;;;;;5044920;28;20033;-68
2021/12/12 07:04:13;;;;;;;1.30;1.00;;;20.20;52.50;;;;;;5042037;28;20052;-68
2021/12/12 07:06:40;;;;;;;1.52;0.93;;;20.20;52.40;;;;;;5041462;28;20148;-67
2021/12/12 07:09:09;;;;;;;1.23;0.90;;;20.20;52.40;;;;;;5043554;28;20039;-70
2021/12/12 07:11:37;;;;;;;1.42;0.90;;;20.20;52.40;;;;;;5040387;28;20021;-68
2021/12/12 07:14:05;;;;;;;1.40;1.00;;;20.20;52.40;;;;;;5044129;28;20036;-72
2021/12/12 07:16:31;;;;;;;1.02;0.85;;;20.20;52.40;;;;;;5040617;28;20064;-72
2021/12/12 07:18:58;;;;;;;0.98;0.80;;;20.20;52.40;;;;;;5041398;28;20512;-71
2021/12/12 07:21:26;;;;;;;1.50;0.90;;;20.20;52.40;;;;;;5043701;28;20147;-68
2021/12/12 07:23:52;;;;;;;1.60;1.00;;;20.20;52.40;;;;;;5040535;28;20094;-71
2021/12/12 07:26:22;;;;;;;0.70;0.70;;;20.20;52.40;;;;;;5041522;28;20108;-69
2021/12/12 07:28:50;;;;;;;1.35;1.00;;;20.20;52.50;;;;;;5045866;28;20021;-69
2021/12/12 07:31:20;;;;;;;1.33;1.00;;;20.20;52.50;;;;;;5041752;28;20037;-71
2021/12/12 07:33:49;;;;;;;1.50;1.00;;;20.20;52.50;;;;;;5039691;28;20067;-72
2021/12/12 07:36:16;;;;;;;1.13;0.80;;;20.20;52.50;;;;;;5039823;28;20716;-70
2021/12/12 07:38:45;;;;;;;3.05;1.02;;;20.20;52.60;;;;;;5042602;28;20040;-70
2021/12/12 07:41:12;;;;;;;1.85;1.00;;;20.20;52.60;;;;;;5044919;28;20020;-67
2021/12/12 07:43:38;;;;;;;1.02;0.80;;;20.20;52.60;;;;;;5042700;28;20456;-72
2021/12/12 07:46:06;;;;;;;1.30;0.90;;;20.20;52.60;;;;;;5043679;28;20041;-68
2021/12/12 07:48:35;;;;;;;1.13;0.88;;;20.20;52.60;;;;;;5041347;28;20025;-68
2021/12/12 07:51:02;;;;;;;;;;;20.10;52.50;;;;;;5041700;28;20025;-68
2021/12/12 07:53:29;;;;;;;1.20;0.80;;;20.10;52.60;;;;;;5043550;28;19909;-71
2021/12/12 07:55:57;;;;;;;1.08;0.75;;;20.20;52.60;;;;;;5040019;28;20060;-71
2021/12/12 07:58:25;;;;;;;1.30;0.90;;;20.20;52.60;;;;;;5042132;28;20032;-68
2021/12/12 08:00:53;;;;;;;1.40;0.93;;;20.10;52.60;;;;;;5039417;28;20106;-69
2021/12/12 08:03:25;;;;;;;1.73;1.00;;;20.10;52.60;;;;;;5042811;28;20079;-68
2021/12/12 08:05:51;;;;;;;1.63;1.00;;;20.10;52.60;;;;;;5039947;28;20830;-69
2021/12/12 08:08:17;;;;;;;2.00;1.10;;;20.10;52.70;;;;;;5044005;28;20105;-68
2021/12/12 08:10:45;;;;;;;1.90;0.90;;;20.10;52.60;;;;;;5041710;28;20102;-71
2021/12/12 08:13:13;;;;;;;1.40;0.90;;;20.10;52.70;;;;;;5044223;28;20030;-71
2021/12/12 08:15:39;;;;;;;1.67;0.90;;;20.10;52.70;;;;;;5042973;28;20455;-72
2021/12/12 08:18:07;;;;;;;2.78;0.98;;;20.10;52.70;;;;;;5040008;28;20029;-72
2021/12/12 08:20:34;;;;;;;2.70;1.55;;;20.10;52.70;;;;;;5038231;28;20412;-72
2021/12/12 08:23:01;;;;;;;4.80;1.77;;;20.10;52.70;;;;;;5042478;28;20090;-73
2021/12/12 08:25:27;;;;;;;4.85;2.28;;;20.10;52.70;;;;;;5045288;28;20033;-72
2021/12/12 08:27:57;;;;;;;6.50;3.13;;;20.10;52.70;;;;;;5047605;28;20139;-72
2021/12/12 08:30:23;;;;;;;7.47;3.40;;;20.10;52.80;;;;;;5046957;28;20029;-71
2021/12/12 08:32:51;;;;;;;8.48;3.42;;;20.10;52.80;;;;;;5049104;28;20099;-70
2021/12/12 08:35:21;;;;;;;7.63;3.45;;;20.10;52.90;;;;;;5045264;28;20139;-74
2021/12/12 08:37:47;;;;;;;7.32;4.00;;;20.10;52.90;;;;;;5045260;28;20048;-68
2021/12/12 08:40:18;;;;;;;8.48;4.20;;;20.10;52.80;;;;;;5045323;28;20052;-68
2021/12/12 08:42:46;;;;;;;8.32;4.32;;;20.10;52.90;;;;;;5047593;28;20025;-72
2021/12/12 08:45:15;;;;;;;10.07;4.75;;;20.10;52.90;;;;;;5047166;28;20680;-72
2021/12/12 08:47:41;;;;;;;7.80;4.25;;;20.10;52.90;;;;;;5045195;28;20061;-68
2021/12/12 08:50:11;;;;;;;8.82;4.22;;;20.10;52.90;;;;;;5040413;28;20126;-69
2021/12/12 08:52:41;;;;;;;9.30;4.15;;;20.10;52.90;;;;;;5045960;28;20428;-72
2021/12/12 08:55:13;;;;;;;;;;;20.10;53.00;;;;;;5047098;28;20028;-68
2021/12/12 08:57:47;;;;;;;9.90;4.45;;;20.10;53.00;;;;;;5046960;28;20266;-69
2021/12/12 09:00:18;;;;;;;9.68;4.78;;;20.10;52.90;;;;;;5043539;28;20034;-72
2021/12/12 09:02:45;;;;;;;10.02;4.80;;;20.10;53.00;;;;;;5041988;28;20075;-71
2021/12/12 09:05:17;;;;;;;8.40;4.28;;;20.10;52.90;;;;;;5045291;28;20437;-68
2021/12/12 09:07:47;;;;;;;10.38;4.70;;;20.10;53.00;;;;;;5046359;28;20788;-68
2021/12/12 09:10:21;;;;;;;8.63;4.20;;;20.10;53.00;;;;;;5046264;28;20037;-70
2021/12/12 09:13:06;;;;;;;8.52;4.60;;;20.10;53.00;;;;;;5044046;28;20136;-69
2021/12/12 09:16:04;;;;;;;9.15;4.35;;;20.10;53.00;;;;;;5044357;28;20021;-69
2021/12/12 09:19:11;;;;;;;9.07;4.22;;;20.10;53.00;;;;;;5045743;28;20090;-72
2021/12/12 09:21:48;;;;;;;8.05;4.25;;;20.10;53.00;;;;;;5011405;28;20047;-72
2021/12/12 09:24:43;;;;;;;9.88;4.82;;;20.10;53.00;;;;;;5044006;28;20454;-70
2021/12/12 09:27:22;;;;;;;10.05;4.75;;;20.10;53.00;;;;;;5043526;28;20017;-70
2021/12/12 09:30:07;;;;;;;11.40;4.40;;;20.10;53.00;;;;;;5042302;28;20489;-72
2021/12/12 09:32:50;;;;;;;8.52;4.22;;;20.10;53.10;;;;;;5041676;28;20713;-68
2021/12/12 09:35:22;;;;;;;9.23;4.25;;;20.10;53.10;;;;;;5036805;28;20152;-73
2021/12/12 09:38:11;;;;;;;8.65;4.28;;;20.10;53.10;;;;;;5044191;28;20346;-68
2021/12/12 09:41:04;;;;;;;8.32;4.18;;;20.10;53.10;;;;;;5041954;28;20043;-71
2021/12/12 09:43:33;;;;;;;8.82;4.35;;;20.10;53.20;;;;;;5045341;28;20032;-71
2021/12/12 09:46:30;;;;;;;7.07;3.60;;;20.10;53.10;;;;;;5044863;28;20417;-71
2021/12/12 09:52:20;;;;;;;8.82;4.00;;;20.10;53.10;;;;;;5042884;28;20133;-71
2021/12/12 09:55:11;;;;;;;6.10;3.55;;;20.10;53.20;;;;;;5042926;28;20025;-71
2021/12/12 09:57:46;;;;;;;6.57;3.65;;;20.10;53.20;;;;;;5038295;28;20029;-71
2021/12/12 10:00:35;;;;;;;8.20;3.70;;;20.10;53.20;;;;;;5042773;28;20032;-69
2021/12/12 10:03:06;;;;;;;5.85;3.25;;;20.10;53.20;;;;;;5040060;28;20040;-68
2021/12/12 10:05:56;;;;;;;6.70;3.53;;;20.10;53.20;;;;;;5042638;28;20120;-71
2021/12/12 10:08:31;;;;;;;;;;;20.10;53.20;;;;;;5043539;28;20146;-71
2021/12/12 10:10:56;;;;;;;6.28;3.08;;;20.10;53.20;;;;;;5039232;28;19909;-71
2021/12/12 10:13:44;;;;;;;7.68;3.55;;;20.10;53.20;;;;;;5044599;28;20614;-71
2021/12/12 10:16:19;;;;;;;7.70;3.55;;;20.10;53.10;;;;;;5038829;28;20037;-71
2021/12/12 10:19:00;;;;;;;7.43;3.65;;;20.10;53.20;;;;;;5042614;28;20044;-71
2021/12/12 10:21:54;;;;;;;6.13;3.20;;;20.10;53.20;;;;;;5039916;28;20028;-69
2021/12/12 10:24:33;;;;;;;5.88;3.10;;;20.10;53.20;;;;;;5012007;28;20063;-72
2021/12/12 10:27:01;;;;;;;;;;;20.10;53.20;;;;;;5037706;28;20028;-71
2021/12/12 10:29:37;;;;;;;5.63;3.03;;;20.10;53.20;;;;;;5035797;28;20658;-70
2021/12/12 10:32:17;;;;;;;7.88;3.13;;;20.10;53.20;;;;;;5033718;28;20041;-70
2021/12/12 10:34:48;;;;;;;5.90;2.78;;;20.10;53.20;;;;;;5034346;28;20142;-68
2021/12/12 10:37:28;;;;;;;5.50;2.83;;;20.10;53.30;;;;;;5052642;28;20093;-69
2021/12/12 10:40:05;;;;;;;;;;;20.10;53.30;;;;;;5035970;28;20045;-72
2021/12/12 10:42:33;;;;;;;;;;;20.10;53.40;;;;;;5038020;28;19916;-68
2021/12/12 10:44:59;;;;;;;;;;;20.10;53.40;;;;;;5035318;28;20305;-69
2021/12/12 10:47:24;;;;;;;;;;;20.10;53.30;;;;;;5045052;28;19916;-68
2021/12/12 10:50:12;;;;;;;;;;;20.20;53.80;;;;;;5037251;28;20016;-67
2021/12/12 10:52:38;;;;;;;;;;;20.30;53.60;;;;;;5037324;28;20405;-70
2021/12/12 10:55:06;;;;;;;;;;;20.40;53.40;;;;;;5043035;28;20259;-67
2021/12/12 10:57:33;;;;;;;;;;;20.60;53.30;;;;;;5052309;28;20389;-70
2021/12/12 11:00:09;;;;;;;;;;;20.80;52.90;;;;;;5048303;28;19944;-67
2021/12/12 11:02:38;;;;;;;;;;;21.00;52.70;;;;;;5051095;28;20007;-68
2021/12/12 11:05:09;;;;;;;;;;;21.20;52.20;;;;;;5049077;28;19916;-68
2021/12/12 11:07:39;;;;;;;;;;;21.40;51.90;;;;;;5049866;28;20146;-67
2021/12/12 11:10:23;;;;;;;;;;;21.50;51.70;;;;;;5051021;28;19948;-67
2021/12/12 11:12:51;;;;;;;;;;;21.70;51.30;;;;;;5054497;28;19995;-69
2021/12/12 11:15:25;;;;;;;;;;;21.80;51.10;;;;;;5050352;28;19916;-66
2021/12/12 11:17:54;;;;;;;;;;;21.80;51.70;;;;;;5054200;28;19942;-68
2021/12/12 11:20:22;;;;;;;;;;;21.90;51.10;;;;;;5051226;28;19948;-69
2021/12/12 11:22:47;;;;;;;;;;;22.00;51.10;;;;;;5053742;28;19999;-67
2021/12/12 11:25:19;;;;;;;;;;;22.10;51.10;;;;;;5049955;28;19935;-67
2021/12/12 11:27:50;;;;;;;;;;;22.20;51.00;;;;;;5044828;28;19962;-65
2021/12/12 11:30:21;;;;;;;;;;;22.20;50.90;;;;;;5034456;28;19939;-67
2021/12/12 11:32:48;;;;;;;;;;;22.20;50.80;;;;;;5035274;28;20050;-69
2021/12/12 11:35:16;;;;;;;;;;;22.20;50.90;;;;;;5029408;28;20019;-67
2021/12/12 11:37:51;;;;;;;;;;;22.20;51.00;;;;;;5033713;28;19917;-68
2021/12/12 11:40:23;;;;;;;;;;;22.20;51.10;;;;;;5034694;28;19989;-68
2021/12/12 11:42:57;;;;;;;;;;;22.20;51.20;;;;;;5033464;28;19970;-68
2021/12/12 11:45:25;;;;;;;;;;;22.20;51.10;;;;;;5035540;28;19921;-69
2021/12/12 11:47:50;;;;;;;;;;;22.20;51.30;;;;;;5035363;28;20478;-69
2021/12/12 11:50:22;;;;;;;;;;;22.20;51.30;;;;;;5032947;28;19916;-68
2021/12/12 11:52:54;;;;;;;;;;;22.20;51.20;;;;;;5036556;28;19927;-70
2021/12/12 11:55:25;;;;;;;;;;;22.20;51.20;;;;;;5034036;28;20035;-69
2021/12/12 11:57:59;;;;;;;;;;;22.20;51.00;;;;;;5035634;28;20272;-69
2021/12/12 12:00:47;;;;;;;;;;;22.20;51.30;;;;;;5036484;28;19920;-68
2021/12/12 12:03:23;;;;;;;;;;;22.20;51.10;;;;;;5037589;28;19908;-68
2021/12/12 12:05:58;;;;;;;;;;;22.20;51.10;;;;;;5029611;28;19913;-68
2021/12/12 12:08:42;;;;;;;;;;;22.10;51.00;;;;;;5034386;28;19913;-69
2021/12/12 12:11:20;;;;;;;;;;;22.10;50.90;;;;;;5040055;28;19913;-64
2021/12/12 12:13:56;;;;;;;;;;;22.10;51.00;;;;;;5036191;28;19956;-69
2021/12/12 12:16:34;;;;;;;;;;;22.10;51.00;;;;;;5038085;28;19927;-64
2021/12/12 12:19:00;;;;;;;;;;;22.10;50.90;;;;;;5038209;28;19916;-68
2021/12/12 12:21:40;;;;;;;;;;;22.10;50.90;;;;;;5037429;28;20416;-65
2021/12/12 12:24:13;;;;;;;;;;;22.00;50.90;;;;;;5038513;28;20317;-68
2021/12/12 12:27:05;;;;;;;;;;;22.10;50.90;;;;;;5037719;28;21007;-69
2021/12/12 12:29:30;;;;;;;;;;;22.00;51.00;;;;;;5036409;28;20645;-68
2021/12/12 12:32:15;;;;;;;;;;;22.00;50.90;;;;;;5042439;28;19923;-67
2021/12/12 12:34:49;;;;;;;;;;;22.00;51.00;;;;;;5038330;28;19921;-65
2021/12/12 12:37:30;;;;;;;;;;;21.90;50.90;;;;;;5040745;28;19923;-64
2021/12/12 12:40:18;;;;;;;;;;;22.00;51.00;;;;;;5039094;28;19971;-66
2021/12/12 12:43:03;;;;;;;;;;;21.90;51.00;;;;;;5041008;28;20784;-69
2021/12/12 12:45:47;;;;;;;;;;;21.90;51.00;;;;;;5034815;28;19916;-69
2021/12/12 12:48:12;;;;;;;;;;;21.90;51.00;;;;;;5039376;28;20019;-68
2021/12/12 12:50:46;;;;;;;;;;;21.90;51.00;;;;;;5034662;28;20601;-69
2021/12/12 12:53:31;;;;;;;;;;;21.90;51.00;;;;;;5035491;28;19909;-67
2021/12/12 12:56:14;;;;;;;;;;;21.90;51.00;;;;;;5034300;28;19917;-68
2021/12/12 12:58:42;;;;;;;;;;;21.90;51.10;;;;;;5034706;28;19916;-64
2021/12/12 13:01:12;;;;;;;;;;;21.80;51.00;;;;;;5027473;28;19932;-68
2021/12/12 13:03:41;;;;;;;;;;;21.80;51.10;;;;;;5035123;28;19971;-65
2021/12/12 13:06:25;;;;;;;;;;;21.80;51.10;;;;;;5037110;28;19972;-67
2021/12/12 13:08:51;;;;;;;;;;;21.80;51.20;;;;;;5034661;28;20262;-68
2021/12/12 13:11:42;;;;;;;;;;;21.70;51.10;;;;;;5039704;28;19916;-69
2021/12/12 13:14:11;;;;;;;;;;;21.80;51.20;;;;;;5037435;28;19917;-68
2021/12/12 13:16:40;;;;;;;;;;;21.70;51.10;;;;;;5041184;28;20043;-66
2021/12/12 13:19:09;;;;;;;;;;;21.70;51.20;;;;;;5042375;28;19919;-69
2021/12/12 13:21:36;;;;;;;;;;;21.70;51.10;;;;;;5042943;28;20007;-69
2021/12/12 13:24:20;;;;;;;;;;;21.70;51.20;;;;;;5042650;28;19919;-70
2021/12/12 13:30:05;;;;;;;;;;;21.60;51.20;;;;;;5016176;28;19917;-68
2021/12/12 13:32:50;;;;;;;;;;;21.60;51.20;;;;;;5041315;28;19943;-64
2021/12/12 13:35:20;;;;;;;;;;;21.60;51.20;;;;;;5038507;28;19916;-68
2021/12/12 13:38:04;;;;;;;;;;;21.60;51.20;;;;;;5041049;28;19960;-67
2021/12/12 13:40:48;;;;;;;;;;;21.60;51.30;;;;;;5040547;28;19999;-68
2021/12/12 13:43:14;;;;;;;;;;;21.50;51.20;;;;;;5040666;28;19933;-68
2021/12/12 13:45:48;;;;;;;;;;;21.50;51.30;;;;;;5039371;28;19923;-67
2021/12/12 13:48:23;;;;;;;;;;;21.50;51.30;;;;;;5042520;28;20600;-67
2021/12/12 13:50:51;;;;;;;;;;;21.50;51.30;;;;;;5040607;28;19936;-67
2021/12/12 13:53:28;;;;;;;;;;;21.50;51.30;;;;;;5041852;28;19908;-68
2021/12/12 13:56:05;;;;;;;;;;;21.50;51.30;;;;;;5035076;28;19989;-67
2021/12/12 13:58:41;;;;;;;;;;;21.40;51.40;;;;;;5033918;28;19936;-67
2021/12/12 14:01:08;;;;;;;;;;;21.50;51.50;;;;;;5034856;28;19925;-65